Time;durP1;ratioP1;P1;durP2;ratioP2;P2;SDS_P1;SDS_P2;PMS_P1;PMS_P2;Temp;Humidity;BMP_temperature;BMP_pressure;BME280_temperature;BME280_humidity;BME280_pressure;Samples;Min_cycle;Max_cycle;Signal;HPM_P1;HPM_P2
2022/12/23 06:00:43;;;;;;;1.80;1.70;;;11.90;97.20;;;;;;1663077;29;20207;-72
2022/12/23 06:01:33;;;;;;;2.28;1.75;;;11.90;97.20;;;;;;1662859;29;20207;-72
2022/12/23 06:02:25;;;;;;;2.03;1.60;;;11.90;97.20;;;;;;1662738;29;20217;-72
2022/12/23 06:03:16;;;;;;;2.47;1.45;;;11.90;97.20;;;;;;1658987;29;20211;-72
2022/12/23 06:04:07;;;;;;;2.27;1.80;;;11.90;97.20;;;;;;1664254;29;20207;-72
2022/12/23 06:04:58;;;;;;;1.65;1.45;;;11.90;97.20;;;;;;1668490;29;20198;-72
2022/12/23 06:05:50;;;;;;;2.17;1.47;;;11.90;97.20;;;;;;1667787;29;20282;-72
2022/12/23 06:06:41;;;;;;;1.40;1.30;;;11.90;97.20;;;;;;1668639;29;20210;-72
2022/12/23 06:07:33;;;;;;;2.50;1.33;;;11.90;97.20;;;;;;1669278;29;20215;-72
2022/12/23 06:08:24;;;;;;;1.75;1.45;;;11.90;97.20;;;;;;1668990;29;20210;-72
2022/12/23 06:09:15;;;;;;;1.10;1.00;;;11.90;97.20;;;;;;1669205;29;20203;-74
2022/12/23 06:10:08;;;;;;;1.10;1.00;;;11.90;97.20;;;;;;1669240;29;20451;-72
2022/12/23 06:11:00;;;;;;;1.02;0.93;;;11.90;97.20;;;;;;1669197;29;20241;-72
2022/12/23 06:11:51;;;;;;;1.35;0.98;;;11.90;97.20;;;;;;1669252;29;20229;-72
2022/12/23 06:12:41;;;;;;;1.00;0.80;;;11.90;97.20;;;;;;1669230;29;20211;-72
2022/12/23 06:13:33;;;;;;;1.20;1.10;;;11.90;97.20;;;;;;1669263;29;20845;-72
2022/12/23 06:14:24;;;;;;;1.55;1.02;;;11.90;97.20;;;;;;1666994;29;20217;-72
2022/12/23 06:15:16;;;;;;;1.10;0.90;;;11.80;97.20;;;;;;1662995;29;20217;-72
2022/12/23 06:16:08;;;;;;;1.00;0.90;;;11.80;97.20;;;;;;1662846;29;20594;-72
2022/12/23 06:17:00;;;;;;;1.10;0.90;;;11.80;97.20;;;;;;1662199;29;20203;-72
2022/12/23 06:17:50;;;;;;;0.90;0.80;;;11.80;97.20;;;;;;1662853;29;20215;-72
2022/12/23 06:18:42;;;;;;;1.23;1.13;;;11.80;97.20;;;;;;1663036;29;20725;-72
2022/12/23 06:19:33;;;;;;;1.85;0.90;;;11.80;97.20;;;;;;1662931;29;20215;-72
2022/12/23 06:20:24;;;;;;;1.80;0.80;;;11.80;97.20;;;;;;1665435;29;20673;-72
2022/12/23 06:21:15;;;;;;;3.22;1.10;;;11.80;97.20;;;;;;1668862;29;20234;-72
2022/12/23 06:22:07;;;;;;;2.23;0.93;;;11.80;97.20;;;;;;1662532;29;20223;-72
2022/12/23 06:22:58;;;;;;;0.98;0.80;;;11.80;97.20;;;;;;1662801;29;20207;-72
2022/12/23 06:23:49;;;;;;;1.00;0.80;;;11.70;97.20;;;;;;1662598;29;20211;-72
2022/12/23 06:24:40;;;;;;;3.30;1.10;;;11.70;97.20;;;;;;1662849;29;20601;-72
2022/12/23 06:25:32;;;;;;;2.33;1.00;;;11.80;97.20;;;;;;1662801;29;20207;-72
2022/12/23 06:26:23;;;;;;;1.02;0.90;;;11.80;97.20;;;;;;1662779;29;20456;-72
2022/12/23 06:27:14;;;;;;;0.97;0.97;;;11.80;97.20;;;;;;1661880;29;20207;-72
2022/12/23 06:28:06;;;;;;;1.10;1.00;;;11.80;97.20;;;;;;1662389;29;20207;-72
2022/12/23 06:28:58;;;;;;;1.23;0.90;;;11.80;97.20;;;;;;1662737;29;20259;-72
2022/12/23 06:29:48;;;;;;;2.40;0.90;;;11.80;97.20;;;;;;1662436;29;20215;-72
2022/12/23 06:30:40;;;;;;;1.00;0.83;;;11.80;97.20;;;;;;1665063;29;20239;-72
2022/12/23 06:31:32;;;;;;;0.80;0.80;;;11.80;97.20;;;;;;1664325;29;20247;-72
2022/12/23 06:32:24;;;;;;;0.90;0.65;;;11.80;97.20;;;;;;1666430;29;20259;-73
2022/12/23 06:33:14;;;;;;;0.75;0.70;;;11.80;97.20;;;;;;1661981;29;20218;-73
2022/12/23 06:34:06;;;;;;;1.07;0.97;;;11.80;97.20;;;;;;1662033;29;20214;-74
2022/12/23 06:34:57;;;;;;;1.08;0.77;;;11.80;97.20;;;;;;1662357;29;20593;-73
2022/12/23 06:35:49;;;;;;;1.40;0.70;;;11.80;97.20;;;;;;1662592;29;20204;-73
2022/12/23 06:36:40;;;;;;;0.93;0.80;;;11.80;97.20;;;;;;1661586;29;20242;-75
2022/12/23 06:37:31;;;;;;;2.33;1.40;;;11.80;97.20;;;;;;1662093;29;20207;-73
2022/12/23 06:38:22;;;;;;;1.67;1.58;;;11.80;97.20;;;;;;1662543;29;20223;-73
2022/12/23 06:39:14;;;;;;;1.10;1.00;;;11.80;97.20;;;;;;1662633;29;20211;-73
2022/12/23 06:40:06;;;;;;;1.13;1.02;;;11.80;97.20;;;;;;1662587;29;20204;-73
2022/12/23 06:40:57;;;;;;;1.25;1.00;;;11.70;97.20;;;;;;1662512;29;20223;-72
2022/12/23 06:41:48;;;;;;;1.10;1.00;;;11.70;97.20;;;;;;1662762;29;20211;-73
2022/12/23 06:42:40;;;;;;;0.90;0.90;;;11.70;97.20;;;;;;1662724;29;20280;-73
2022/12/23 06:43:31;;;;;;;0.80;0.80;;;11.70;97.20;;;;;;1662569;29;20207;-72
2022/12/23 06:44:23;;;;;;;1.10;0.80;;;11.70;97.20;;;;;;1662852;29;20221;-72
2022/12/23 06:45:13;;;;;;;1.23;0.90;;;11.70;97.20;;;;;;1662797;29;20211;-72
2022/12/23 06:46:05;;;;;;;0.97;0.87;;;11.70;97.20;;;;;;1662724;29;20211;-73
2022/12/23 06:46:57;;;;;;;1.23;0.82;;;11.70;97.20;;;;;;1662157;29;20212;-73
2022/12/23 06:47:49;;;;;;;1.60;0.80;;;11.70;97.20;;;;;;1662649;29;20211;-73
2022/12/23 06:48:40;;;;;;;1.10;0.82;;;11.70;97.20;;;;;;1662619;29;20215;-73
2022/12/23 06:49:31;;;;;;;1.00;0.90;;;11.70;97.20;;;;;;1662638;29;20203;-72
2022/12/23 06:50:22;;;;;;;0.85;0.70;;;11.70;97.20;;;;;;1662855;29;20602;-72
2022/12/23 06:51:14;;;;;;;0.80;0.60;;;11.70;97.20;;;;;;1663446;29;20211;-73
2022/12/23 06:52:04;;;;;;;0.73;0.65;;;11.70;97.20;;;;;;1665042;29;20666;-74
2022/12/23 06:52:56;;;;;;;1.03;0.70;;;11.70;97.20;;;;;;1662819;29;20570;-73
2022/12/23 06:53:47;;;;;;;1.27;0.70;;;11.70;97.20;;;;;;1662835;29;20671;-73
2022/12/23 06:54:39;;;;;;;1.10;0.73;;;11.70;97.20;;;;;;1662802;29;20221;-72
2022/12/23 06:55:31;;;;;;;1.60;0.80;;;11.70;97.20;;;;;;1662723;29;20467;-72
2022/12/23 06:56:23;;;;;;;0.98;0.60;;;11.70;97.20;;;;;;1662821;29;20294;-73
2022/12/23 06:57:15;;;;;;;1.45;0.80;;;11.70;97.20;;;;;;1661691;29;20207;-71
2022/12/23 06:58:07;;;;;;;0.90;0.70;;;11.70;97.20;;;;;;1662525;29;20211;-73
2022/12/23 06:58:58;;;;;;;1.58;0.73;;;11.80;97.20;;;;;;1675025;29;20238;-73
2022/12/23 06:59:50;;;;;;;1.70;0.70;;;11.80;97.20;;;;;;1674769;29;20241;-73
2022/12/23 07:00:41;;;;;;;0.75;0.60;;;11.80;97.20;;;;;;1666953;29;20247;-72
2022/12/23 07:01:32;;;;;;;2.30;0.70;;;11.80;97.20;;;;;;1662725;29;20223;-72
2022/12/23 07:02:24;;;;;;;1.08;0.80;;;11.80;97.20;;;;;;1662347;29;20258;-72
2022/12/23 07:03:16;;;;;;;1.00;0.70;;;11.80;97.20;;;;;;1662758;29;20264;-73
2022/12/23 07:04:07;;;;;;;0.90;0.70;;;11.80;97.20;;;;;;1662640;29;20243;-73
2022/12/23 07:04:59;;;;;;;1.15;1.05;;;11.80;97.20;;;;;;1662785;29;20199;-72
2022/12/23 07:05:50;;;;;;;0.95;0.80;;;11.80;97.20;;;;;;1662625;29;20203;-72
2022/12/23 07:06:42;;;;;;;0.95;0.80;;;11.70;97.20;;;;;;1661963;29;20210;-72
2022/12/23 07:07:33;;;;;;;1.60;1.20;;;11.70;97.20;;;;;;1662510;29;20210;-72
2022/12/23 07:08:25;;;;;;;1.30;1.20;;;11.70;97.20;;;;;;1662569;29;20215;-73
2022/12/23 07:09:15;;;;;;;1.40;1.20;;;11.70;97.20;;;;;;1662778;29;20578;-73
2022/12/23 07:10:09;;;;;;;1.50;1.30;;;11.70;97.20;;;;;;1662558;29;20203;-73
2022/12/23 07:11:02;;;;;;;3.50;2.47;;;11.70;97.20;;;;;;1662526;29;20978;-73
2022/12/23 07:11:54;;;;;;;1.98;1.75;;;11.70;97.20;;;;;;1662673;29;20306;-73
2022/12/23 07:12:45;;;;;;;2.50;1.83;;;11.60;97.20;;;;;;1662586;29;20235;-73
2022/12/23 07:13:37;;;;;;;3.15;2.30;;;11.60;97.20;;;;;;1662382;29;20208;-73
2022/12/23 07:14:27;;;;;;;2.10;1.90;;;11.60;97.20;;;;;;1662396;29;20290;-73
2022/12/23 07:15:19;;;;;;;4.57;1.60;;;11.60;97.20;;;;;;1662752;29;20218;-73
2022/12/23 07:16:10;;;;;;;1.77;1.67;;;11.60;97.20;;;;;;1662616;29;20267;-73
2022/12/23 07:17:02;;;;;;;1.90;1.63;;;11.60;97.20;;;;;;1662052;29;20264;-73
2022/12/23 07:17:56;;;;;;;1.88;1.77;;;11.60;97.20;;;;;;1662528;29;20211;-73
2022/12/23 07:18:48;;;;;;;2.92;2.13;;;11.60;97.20;;;;;;1662623;29;20207;-73
2022/12/23 07:19:40;;;;;;;2.03;1.50;;;11.60;97.20;;;;;;1662684;29;20267;-73
2022/12/23 07:20:32;;;;;;;1.65;1.25;;;11.60;97.20;;;;;;1662541;29;20239;-76
2022/12/23 07:21:23;;;;;;;1.45;1.35;;;11.60;97.20;;;;;;1662660;29;20211;-75
2022/12/23 07:22:14;;;;;;;1.40;1.30;;;11.60;97.20;;;;;;1662607;29;20211;-76
2022/12/23 07:23:05;;;;;;;1.80;1.45;;;11.60;97.20;;;;;;1662298;29;20219;-75
2022/12/23 07:23:57;;;;;;;1.77;1.67;;;11.60;97.20;;;;;;1662041;29;20235;-74
2022/12/23 07:24:48;;;;;;;1.50;1.40;;;11.60;97.20;;;;;;1661871;29;20203;-74
2022/12/23 07:25:39;;;;;;;1.40;1.30;;;11.60;97.20;;;;;;1661972;29;20211;-74
2022/12/23 07:26:30;;;;;;;1.50;1.40;;;11.60;97.20;;;;;;1662245;29;20215;-74
2022/12/23 07:27:22;;;;;;;2.23;1.20;;;11.60;97.20;;;;;;1661936;29;20215;-73
2022/12/23 07:28:13;;;;;;;1.48;1.38;;;11.60;97.20;;;;;;1662542;29;20211;-73
2022/12/23 07:29:04;;;;;;;1.67;1.57;;;11.60;97.20;;;;;;1662193;29;20215;-74
2022/12/23 07:29:55;;;;;;;1.50;1.40;;;11.60;97.20;;;;;;1661733;29;20630;-73
2022/12/23 07:30:47;;;;;;;1.47;1.37;;;11.60;97.20;;;;;;1671306;29;20597;-75
2022/12/23 07:31:37;;;;;;;1.73;1.42;;;11.60;97.20;;;;;;1675885;29;20222;-73
2022/12/23 07:32:29;;;;;;;1.73;1.30;;;11.60;97.20;;;;;;1674428;29;20630;-73
2022/12/23 07:33:21;;;;;;;2.10;1.60;;;11.70;97.20;;;;;;1674539;29;20257;-73
2022/12/23 07:34:13;;;;;;;1.60;1.50;;;11.60;97.20;;;;;;1674493;29;20266;-73
2022/12/23 07:35:04;;;;;;;1.48;1.38;;;11.60;97.20;;;;;;1674404;29;20253;-73
2022/12/23 07:35:58;;;;;;;1.83;1.70;;;11.60;97.20;;;;;;1674419;29;20237;-74
2022/12/23 07:36:49;;;;;;;1.85;1.67;;;11.60;97.20;;;;;;1673770;29;20210;-74
2022/12/23 07:37:40;;;;;;;2.00;1.90;;;11.60;97.20;;;;;;1674644;29;20205;-73
2022/12/23 07:38:31;;;;;;;1.92;1.83;;;11.60;97.20;;;;;;1674466;29;20213;-73
2022/12/23 07:39:23;;;;;;;2.53;2.10;;;11.70;97.20;;;;;;1674665;29;20210;-74
2022/12/23 07:40:14;;;;;;;3.72;2.00;;;11.70;97.20;;;;;;1674425;29;20260;-73
2022/12/23 07:41:06;;;;;;;2.47;2.27;;;11.70;97.20;;;;;;1674619;29;20202;-73
2022/12/23 07:41:56;;;;;;;2.70;2.33;;;11.70;97.20;;;;;;1674600;29;20458;-73
2022/12/23 07:42:49;;;;;;;2.23;2.03;;;11.70;97.20;;;;;;1674451;29;20232;-73
2022/12/23 07:43:40;;;;;;;2.70;2.50;;;11.70;97.20;;;;;;1674386;29;20217;-74
2022/12/23 07:44:31;;;;;;;3.77;3.47;;;11.70;97.20;;;;;;1674514;29;20205;-75
2022/12/23 07:45:23;;;;;;;2.70;2.50;;;11.70;97.20;;;;;;1674545;29;20213;-75
2022/12/23 07:46:15;;;;;;;2.38;2.20;;;11.70;97.20;;;;;;1674968;29;20214;-75
2022/12/23 07:47:06;;;;;;;3.20;2.80;;;11.70;97.20;;;;;;1674257;29;20214;-75
2022/12/23 07:48:01;;;;;;;2.97;2.70;;;11.80;97.20;;;;;;1675009;29;20208;-75
2022/12/23 07:48:53;;;;;;;4.13;3.70;;;11.80;97.20;;;;;;1675016;29;20442;-75
2022/12/23 07:49:45;;;;;;;3.67;3.38;;;11.80;97.20;;;;;;1675261;29;20277;-76
2022/12/23 07:50:36;;;;;;;20.33;4.18;;;11.80;97.20;;;;;;1674963;29;20240;-75
2022/12/23 07:51:27;;;;;;;3.77;3.47;;;11.80;97.20;;;;;;1675344;29;20212;-76
2022/12/23 07:52:18;;;;;;;3.50;3.20;;;11.80;97.20;;;;;;1675196;29;20210;-75
2022/12/23 07:53:10;;;;;;;3.70;3.40;;;11.80;97.20;;;;;;1674974;29;20206;-75
2022/12/23 07:54:01;;;;;;;2.90;2.70;;;11.80;97.20;;;;;;1675065;29;20221;-75
2022/12/23 07:54:52;;;;;;;2.37;2.17;;;11.90;97.20;;;;;;1675085;29;20209;-75
2022/12/23 07:55:43;;;;;;;2.70;2.50;;;11.90;97.20;;;;;;1674931;29;20238;-75
2022/12/23 07:56:35;;;;;;;1.90;1.80;;;11.90;97.20;;;;;;1674967;29;20216;-75
2022/12/23 07:57:25;;;;;;;2.10;2.00;;;11.90;97.20;;;;;;1674405;29;20209;-75
2022/12/23 07:58:17;;;;;;;1.80;1.70;;;11.90;97.20;;;;;;1674963;29;20206;-76
2022/12/23 07:59:08;;;;;;;1.95;1.75;;;11.90;97.20;;;;;;1674954;29;20826;-76
2022/12/23 07:59:59;;;;;;;1.93;1.83;;;11.90;97.20;;;;;;1675007;29;20682;-75
2022/12/23 08:00:50;;;;;;;1.73;1.63;;;11.90;97.20;;;;;;1674339;29;20217;-76
2022/12/23 08:01:42;;;;;;;2.77;2.57;;;11.90;97.20;;;;;;1675002;29;20198;-76
2022/12/23 08:02:33;;;;;;;2.70;2.47;;;11.90;97.20;;;;;;1674733;29;20202;-75
2022/12/23 08:03:25;;;;;;;2.33;2.20;;;11.90;97.20;;;;;;1675001;29;20213;-75
2022/12/23 08:04:17;;;;;;;2.22;2.10;;;11.90;97.20;;;;;;1675141;29;20210;-75
2022/12/23 08:05:09;;;;;;;2.00;1.90;;;11.90;97.20;;;;;;1675008;29;20220;-76
2022/12/23 08:06:02;;;;;;;2.10;2.00;;;11.90;97.20;;;;;;1675078;29;20212;-75
2022/12/23 08:06:53;;;;;;;1.60;1.50;;;11.90;97.20;;;;;;1674427;29;20284;-76
2022/12/23 08:07:44;;;;;;;2.00;1.67;;;11.90;97.20;;;;;;1674978;29;20645;-75
2022/12/23 08:08:37;;;;;;;2.13;1.30;;;11.90;97.20;;;;;;1674899;29;20261;-75
2022/12/23 08:09:27;;;;;;;1.75;1.35;;;11.90;97.20;;;;;;1674905;29;20217;-75
2022/12/23 08:10:19;;;;;;;2.20;1.57;;;11.90;97.20;;;;;;1674889;29;20210;-76
2022/12/23 08:11:11;;;;;;;3.08;1.77;;;11.90;97.20;;;;;;1674867;29;20217;-76
2022/12/23 08:12:03;;;;;;;1.83;1.00;;;11.90;97.20;;;;;;1674982;29;20218;-75
2022/12/23 08:12:54;;;;;;;1.50;1.20;;;11.90;97.20;;;;;;1675036;29;20206;-75
2022/12/23 08:13:47;;;;;;;2.77;2.10;;;11.90;97.20;;;;;;1674324;29;20297;-75
2022/12/23 08:14:37;;;;;;;1.83;1.60;;;12.00;97.20;;;;;;1674940;29;20269;-75
2022/12/23 08:15:29;;;;;;;2.93;1.47;;;12.00;97.20;;;;;;1674972;29;20210;-75
2022/12/23 08:16:20;;;;;;;1.50;1.40;;;12.00;97.20;;;;;;1674650;29;20217;-75
2022/12/23 08:17:11;;;;;;;1.63;1.53;;;12.00;97.20;;;;;;1673917;29;20673;-76
2022/12/23 08:18:02;;;;;;;3.38;2.65;;;12.00;97.20;;;;;;1674783;29;20677;-75
2022/12/23 08:18:54;;;;;;;3.40;2.20;;;12.00;97.20;;;;;;1675109;29;20696;-75
2022/12/23 08:19:46;;;;;;;3.35;2.30;;;12.00;97.20;;;;;;1674869;29;20478;-76
2022/12/23 08:20:38;;;;;;;4.07;2.60;;;12.00;97.20;;;;;;1674897;29;20321;-75
2022/12/23 08:21:28;;;;;;;2.58;1.65;;;12.00;97.20;;;;;;1674776;29;20304;-75
2022/12/23 08:22:20;;;;;;;6.13;2.20;;;12.00;97.20;;;;;;1674950;29;20303;-75
2022/12/23 08:23:11;;;;;;;3.70;1.85;;;12.10;97.20;;;;;;1674791;29;20718;-75
2022/12/23 08:24:03;;;;;;;2.47;2.17;;;12.10;97.20;;;;;;1674913;29;20680;-75
2022/12/23 08:24:53;;;;;;;4.15;1.70;;;12.10;97.20;;;;;;1674958;29;20669;-75
2022/12/23 08:25:45;;;;;;;2.97;1.60;;;12.10;97.20;;;;;;1674817;29;20564;-75
2022/12/23 08:26:36;;;;;;;2.58;1.30;;;12.10;97.20;;;;;;1677153;29;20213;-75
2022/12/23 08:27:28;;;;;;;1.60;1.50;;;12.10;97.20;;;;;;1674714;29;20216;-75
2022/12/23 08:28:18;;;;;;;1.27;1.17;;;12.10;97.20;;;;;;1674782;29;20473;-75
2022/12/23 08:29:10;;;;;;;1.67;0.90;;;12.10;97.20;;;;;;1675163;29;20216;-75
2022/12/23 08:30:01;;;;;;;1.10;1.00;;;12.10;97.20;;;;;;1675190;29;20577;-75
2022/12/23 08:30:53;;;;;;;1.00;0.90;;;12.10;97.20;;;;;;1670644;29;20627;-75
2022/12/23 08:31:43;;;;;;;1.20;1.10;;;12.10;97.20;;;;;;1668769;29;20206;-75
2022/12/23 08:32:35;;;;;;;1.83;1.73;;;12.10;97.20;;;;;;1668125;29;20206;-75
2022/12/23 08:33:26;;;;;;;1.50;1.40;;;12.10;97.20;;;;;;1668443;29;20207;-75
2022/12/23 08:34:18;;;;;;;2.50;1.50;;;12.20;97.20;;;;;;1668560;29;20206;-75
2022/12/23 08:35:10;;;;;;;2.88;1.20;;;12.20;97.20;;;;;;1668411;29;20222;-75
2022/12/23 08:36:02;;;;;;;1.80;1.10;;;12.20;97.20;;;;;;1668573;29;20214;-75
2022/12/23 08:36:53;;;;;;;1.85;1.38;;;12.20;97.20;;;;;;1667730;29;20210;-76
2022/12/23 08:37:44;;;;;;;2.47;1.40;;;12.20;97.20;;;;;;1668530;29;20206;-75
2022/12/23 08:38:35;;;;;;;1.13;1.00;;;12.30;97.20;;;;;;1668373;29;20214;-75
2022/12/23 08:39:27;;;;;;;1.30;1.20;;;12.30;97.20;;;;;;1668514;29;20206;-75
2022/12/23 08:40:18;;;;;;;1.40;1.30;;;12.30;97.20;;;;;;1668428;29;20828;-75
2022/12/23 08:41:11;;;;;;;1.40;1.30;;;12.30;97.20;;;;;;1668488;29;20206;-76
2022/12/23 08:42:01;;;;;;;2.00;1.50;;;12.30;97.20;;;;;;1668440;29;20463;-75
2022/12/23 08:42:53;;;;;;;1.97;1.87;;;12.30;97.20;;;;;;1668499;29;20209;-75
2022/12/23 08:43:44;;;;;;;1.90;1.80;;;12.30;97.20;;;;;;1668296;29;20214;-75
2022/12/23 08:44:36;;;;;;;3.45;3.15;;;12.30;97.20;;;;;;1668482;29;20234;-75
2022/12/23 08:45:27;;;;;;;2.70;2.50;;;12.30;97.20;;;;;;1668396;29;20210;-75
2022/12/23 08:46:18;;;;;;;2.77;2.57;;;12.40;97.20;;;;;;1668559;29;20208;-75
2022/12/23 08:47:10;;;;;;;2.42;2.25;;;12.40;97.20;;;;;;1667587;29;20214;-75
2022/12/23 08:48:01;;;;;;;2.25;2.05;;;12.40;97.20;;;;;;1668317;29;20673;-75
2022/12/23 08:48:53;;;;;;;1.87;1.73;;;12.40;97.20;;;;;;1667986;29;20626;-76
2022/12/23 08:49:44;;;;;;;2.05;1.95;;;12.40;97.20;;;;;;1668470;29;20245;-76
2022/12/23 08:50:42;;;;;;;2.30;2.10;;;12.40;97.20;;;;;;1668042;29;20689;-76
2022/12/23 08:51:33;;;;;;;2.10;1.90;;;12.40;97.20;;;;;;1668453;29;20889;-76
2022/12/23 08:52:24;;;;;;;2.25;2.05;;;12.50;97.20;;;;;;1668436;29;20232;-75
2022/12/23 08:53:15;;;;;;;2.05;1.95;;;12.50;97.20;;;;;;1668412;29;20203;-75
2022/12/23 08:54:07;;;;;;;2.10;2.00;;;12.50;97.20;;;;;;1668418;29;20949;-76
2022/12/23 08:54:58;;;;;;;2.10;1.85;;;12.50;97.20;;;;;;1668398;29;20677;-76
2022/12/23 08:55:49;;;;;;;2.40;2.20;;;12.50;97.20;;;;;;1668277;29;20666;-75
2022/12/23 08:56:41;;;;;;;3.40;2.28;;;12.50;97.20;;;;;;1667728;29;20673;-76
2022/12/23 08:57:34;;;;;;;2.78;2.15;;;12.50;97.20;;;;;;1668335;29;20258;-75
2022/12/23 08:58:25;;;;;;;2.30;2.10;;;12.50;97.20;;;;;;1668242;29;20713;-76
2022/12/23 08:59:17;;;;;;;2.63;2.43;;;12.50;97.20;;;;;;1668340;29;20707;-75
2022/12/23 09:00:09;;;;;;;2.60;2.40;;;12.50;97.20;;;;;;1668316;29;20207;-75
2022/12/23 09:01:03;;;;;;;3.63;2.80;;;12.60;97.20;;;;;;1668360;29;20603;-75
2022/12/23 09:01:55;;;;;;;2.50;2.20;;;12.60;97.20;;;;;;1668460;29;20210;-75
2022/12/23 09:02:47;;;;;;;2.90;2.70;;;12.60;97.20;;;;;;1668410;29;20297;-75
2022/12/23 09:03:38;;;;;;;3.33;3.03;;;12.60;97.20;;;;;;1668440;29;20237;-76
2022/12/23 09:04:30;;;;;;;2.60;2.40;;;12.60;97.20;;;;;;1668248;29;20212;-75
2022/12/23 09:05:21;;;;;;;2.20;1.90;;;12.60;97.20;;;;;;1668262;29;20222;-76
2022/12/23 09:06:16;;;;;;;1.60;1.50;;;12.60;97.20;;;;;;1668408;29;20654;-76
2022/12/23 09:07:07;;;;;;;1.75;1.65;;;12.60;97.20;;;;;;1667991;29;20210;-76
2022/12/23 09:07:59;;;;;;;1.77;1.67;;;12.60;97.20;;;;;;1668334;29;20217;-76
2022/12/23 09:08:50;;;;;;;2.70;2.17;;;12.60;97.20;;;;;;1668335;29;20221;-75
2022/12/23 09:09:42;;;;;;;5.13;1.55;;;12.60;97.20;;;;;;1668303;29;20207;-76
2022/12/23 09:10:33;;;;;;;1.98;1.63;;;12.60;97.20;;;;;;1668330;29;20231;-75
2022/12/23 09:11:27;;;;;;;1.70;1.60;;;12.60;97.20;;;;;;1668370;29;20210;-76
2022/12/23 09:12:17;;;;;;;2.15;1.95;;;12.60;97.20;;;;;;1668343;29;20206;-75
2022/12/23 09:13:11;;;;;;;1.67;1.50;;;12.60;97.20;;;;;;1668380;29;20255;-75
2022/12/23 09:14:03;;;;;;;1.95;1.20;;;12.60;97.20;;;;;;1668405;29;20206;-75
2022/12/23 09:14:55;;;;;;;1.30;1.20;;;12.60;97.20;;;;;;1668396;29;20237;-75
2022/12/23 09:15:45;;;;;;;1.52;1.42;;;12.60;97.20;;;;;;1668305;29;20681;-75
2022/12/23 09:16:38;;;;;;;2.00;1.40;;;12.60;97.20;;;;;;1668202;29;20574;-75
2022/12/23 09:17:28;;;;;;;1.58;1.48;;;12.60;97.20;;;;;;1668346;29;20463;-76
2022/12/23 09:18:20;;;;;;;1.47;1.37;;;12.60;97.20;;;;;;1668392;29;20213;-75
2022/12/23 09:19:11;;;;;;;1.63;1.10;;;12.60;97.20;;;;;;1668364;29;20206;-75
2022/12/23 09:20:03;;;;;;;1.93;1.10;;;12.60;97.20;;;;;;1668367;29;20210;-75
2022/12/23 09:20:57;;;;;;;1.25;0.98;;;12.50;97.20;;;;;;1668225;29;20230;-75
2022/12/23 09:21:50;;;;;;;2.97;1.25;;;12.50;97.20;;;;;;1668033;29;20564;-76
2022/12/23 09:22:40;;;;;;;1.55;0.90;;;12.50;97.20;;;;;;1668346;29;20213;-75
2022/12/23 09:23:33;;;;;;;1.10;1.00;;;12.50;97.20;;;;;;1668304;29;20239;-76
2022/12/23 09:24:24;;;;;;;1.63;1.15;;;12.50;97.20;;;;;;1668220;29;20223;-75
2022/12/23 09:25:15;;;;;;;1.77;0.90;;;12.50;97.20;;;;;;1668977;29;20225;-75
2022/12/23 09:26:07;;;;;;;1.40;0.95;;;12.50;97.20;;;;;;1669488;29;20206;-75
2022/12/23 09:26:59;;;;;;;1.20;1.02;;;12.50;97.20;;;;;;1668873;29;20220;-76
2022/12/23 09:27:50;;;;;;;1.00;0.90;;;12.50;97.20;;;;;;1669571;29;20210;-75
2022/12/23 09:28:41;;;;;;;0.90;0.80;;;12.50;97.20;;;;;;1669591;29;20702;-75
2022/12/23 09:29:32;;;;;;;1.55;1.00;;;12.50;97.20;;;;;;1669621;29;20232;-76
2022/12/23 09:30:24;;;;;;;2.10;1.40;;;12.50;97.20;;;;;;1668750;29;20305;-75
2022/12/23 09:31:15;;;;;;;1.30;1.17;;;12.50;97.20;;;;;;1663275;29;20218;-75
2022/12/23 09:32:07;;;;;;;1.67;1.10;;;12.50;97.20;;;;;;1663182;29;20241;-75
2022/12/23 09:32:58;;;;;;;1.88;1.70;;;12.50;97.20;;;;;;1663337;29;20207;-75
2022/12/23 09:33:51;;;;;;;2.10;1.60;;;12.60;97.20;;;;;;1663234;29;20203;-75
2022/12/23 09:34:42;;;;;;;1.23;1.13;;;12.60;97.20;;;;;;1663169;29;20210;-75
2022/12/23 09:35:33;;;;;;;1.30;1.20;;;12.60;97.20;;;;;;1663248;29;20203;-75
2022/12/23 09:36:24;;;;;;;1.25;1.15;;;12.60;97.20;;;;;;1663234;29;20235;-75
2022/12/23 09:37:17;;;;;;;1.10;1.00;;;12.60;97.20;;;;;;1662423;29;20214;-75
2022/12/23 09:38:08;;;;;;;1.42;1.20;;;12.60;97.20;;;;;;1661914;29;20211;-75
2022/12/23 09:39:00;;;;;;;1.30;1.00;;;12.60;97.20;;;;;;1663136;29;20203;-76
2022/12/23 09:39:50;;;;;;;1.50;0.90;;;12.50;97.20;;;;;;1663014;29;20460;-75
2022/12/23 09:40:42;;;;;;;1.13;1.03;;;12.50;97.20;;;;;;1663168;29;20219;-76
2022/12/23 09:41:46;;;;;;;1.10;1.00;;;12.50;97.20;;;;;;1663281;29;20211;-76
2022/12/23 09:42:57;;;;;;;1.02;0.93;;;12.50;97.20;;;;;;1663307;29;20200;-75
2022/12/23 09:43:55;;;;;;;1.00;0.90;;;12.50;97.20;;;;;;1663032;29;20238;-75
2022/12/23 09:45:11;;;;;;;1.33;1.20;;;12.50;97.20;;;;;;1663211;29;20215;-75
2022/12/23 09:46:09;;;;;;;1.42;1.00;;;12.50;97.20;;;;;;1663120;29;20211;-75
2022/12/23 09:47:03;;;;;;;1.05;0.88;;;12.50;97.20;;;;;;1662538;29;20670;-75
2022/12/23 09:47:56;;;;;;;1.15;1.05;;;12.50;97.20;;;;;;1663078;29;20746;-75
2022/12/23 09:48:55;;;;;;;1.50;1.05;;;12.50;97.20;;;;;;1663045;29;20210;-75
2022/12/23 09:49:50;;;;;;;1.02;0.95;;;12.50;97.20;;;;;;1663093;29;20207;-75
2022/12/23 09:50:42;;;;;;;1.00;0.90;;;12.50;97.20;;;;;;1663039;29;20231;-75
2022/12/23 09:51:34;;;;;;;1.08;0.98;;;12.50;97.20;;;;;;1663110;29;20206;-75
2022/12/23 09:52:35;;;;;;;1.00;0.90;;;12.50;97.20;;;;;;1663015;29;20218;-75
2022/12/23 09:53:35;;;;;;;1.33;1.02;;;12.50;97.20;;;;;;1663001;29;20243;-75
2022/12/23 09:54:28;;;;;;;1.00;0.90;;;12.50;97.20;;;;;;1662322;29;20219;-75
2022/12/23 09:55:23;;;;;;;1.55;1.23;;;12.50;97.20;;;;;;1663056;29;20215;-75
2022/12/23 09:56:20;;;;;;;1.85;1.20;;;12.50;97.20;;;;;;1662831;29;20589;-76
2022/12/23 09:57:20;;;;;;;1.20;1.10;;;12.50;97.20;;;;;;1662341;29;20222;-75
2022/12/23 09:58:22;;;;;;;0.93;0.80;;;12.50;97.20;;;;;;1662870;29;20220;-75
2022/12/23 09:59:27;;;;;;;1.00;0.90;;;12.50;97.20;;;;;;1663007;29;20276;-75
2022/12/23 10:00:20;;;;;;;1.45;0.75;;;12.50;97.20;;;;;;1663060;29;20218;-75
2022/12/23 10:01:18;;;;;;;2.58;0.88;;;12.50;97.20;;;;;;1664102;29;20243;-75
2022/12/23 10:02:18;;;;;;;1.60;1.00;;;12.50;97.20;;;;;;1663000;29;20211;-75
2022/12/23 10:03:20;;;;;;;0.80;0.80;;;12.50;97.20;;;;;;1663567;29;20212;-75
2022/12/23 10:04:39;;;;;;;1.90;1.00;;;12.50;97.20;;;;;;1662972;29;20214;-75
2022/12/23 10:05:41;;;;;;;1.38;1.10;;;12.50;97.20;;;;;;1662969;29;20211;-75
2022/12/23 10:06:34;;;;;;;1.13;0.93;;;12.50;97.20;;;;;;1662952;29;20216;-75
2022/12/23 10:07:34;;;;;;;1.42;0.90;;;12.50;97.20;;;;;;1662349;29;20246;-76
2022/12/23 10:08:33;;;;;;;1.10;1.00;;;12.50;97.20;;;;;;1662823;29;20254;-75
2022/12/23 10:09:23;;;;;;;1.00;0.60;;;12.50;97.20;;;;;;1662996;29;20223;-75
2022/12/23 10:10:20;;;;;;;0.90;0.80;;;12.50;97.20;;;;;;1662494;29;20207;-76
2022/12/23 10:11:15;;;;;;;0.95;0.80;;;12.50;97.20;;;;;;1663011;29;20815;-76
2022/12/23 10:12:16;;;;;;;0.90;0.60;;;12.50;97.20;;;;;;1662756;29;20191;-75
2022/12/23 10:13:25;;;;;;;1.55;0.85;;;12.50;97.20;;;;;;1662892;29;20211;-75
2022/12/23 10:14:22;;;;;;;1.30;0.60;;;12.50;97.20;;;;;;1663064;29;20216;-75
2022/12/23 10:15:22;;;;;;;0.70;0.60;;;12.50;97.20;;;;;;1662955;29;20236;-76
2022/12/23 10:16:17;;;;;;;0.88;0.70;;;12.50;97.20;;;;;;1663005;29;20215;-75
2022/12/23 10:17:14;;;;;;;3.72;0.60;;;12.50;97.20;;;;;;1662163;29;20211;-76
2022/12/23 10:18:18;;;;;;;0.70;0.60;;;12.50;97.20;;;;;;1656209;29;20651;-76
2022/12/23 10:19:16;;;;;;;1.15;0.90;;;12.50;97.20;;;;;;1656331;29;20503;-76
2022/12/23 10:20:17;;;;;;;1.08;0.70;;;12.50;97.20;;;;;;1662951;29;20192;-75
2022/12/23 10:21:14;;;;;;;1.23;0.60;;;12.50;97.20;;;;;;1662899;29;20245;-75
2022/12/23 10:22:11;;;;;;;0.80;0.60;;;12.50;97.20;;;;;;1662902;29;20215;-75
2022/12/23 10:23:05;;;;;;;0.98;0.88;;;12.50;97.20;;;;;;1662936;29;20196;-76
2022/12/23 10:24:01;;;;;;;0.90;0.60;;;12.50;97.20;;;;;;1662859;29;20625;-75
2022/12/23 10:24:55;;;;;;;1.40;0.70;;;12.50;97.20;;;;;;1662771;29;20207;-75
2022/12/23 10:25:50;;;;;;;0.90;0.80;;;12.60;97.20;;;;;;1662802;29;20219;-75
2022/12/23 10:26:48;;;;;;;1.98;0.90;;;12.60;97.20;;;;;;1661890;29;20208;-75
2022/12/23 10:27:40;;;;;;;1.70;1.10;;;12.50;97.20;;;;;;1662985;29;20678;-75
2022/12/23 10:28:32;;;;;;;1.98;0.70;;;12.60;97.20;;;;;;1662634;29;20211;-75
2022/12/23 10:29:25;;;;;;;1.33;0.90;;;12.50;97.20;;;;;;1662833;29;20211;-75
2022/12/23 10:30:19;;;;;;;1.00;0.90;;;12.50;97.20;;;;;;1662865;29;20268;-75
2022/12/23 10:31:18;;;;;;;1.25;0.80;;;12.60;97.20;;;;;;1662707;29;20223;-75
2022/12/23 10:32:20;;;;;;;0.93;0.90;;;12.50;97.20;;;;;;1662790;29;20211;-75
2022/12/23 10:33:18;;;;;;;1.52;1.00;;;12.50;97.20;;;;;;1662800;29;20212;-75
2022/12/23 10:34:19;;;;;;;2.42;1.10;;;12.60;97.20;;;;;;1662777;29;20219;-75
2022/12/23 10:35:22;;;;;;;1.20;1.10;;;12.60;97.20;;;;;;1662836;29;20216;-75